< < Back
Terminal Aerodrome Forecast


Current Version              Previous Versions:   1  2  3  4  5  6  7  8  9  

Terminal Aerodrome Forecast

881
FTUS44 KHUN 231727 CCA
TAFHSV
TAF COR
KHSV 231727Z 2318/2418 VRB04KT P6SM VCSH BKN040
      TEMPO 2318/2320 5SM TSRA SCT020 OVC035CB
     FM240200 VRB03KT P6SM VCSH SCT040 BKN100
      TEMPO 2410/2414 5SM TSRA BR SCT020 OVC040CB
     FM241500 26006KT P6SM VCSH BKN040=



Latest METAR

337
SAUS80 KWBC 232000 RRB
MTRHSV
METAR KHSV 231953Z 21004KT 10SM FEW030 BKN130 BKN250 24/22 A3004 RMK AO2
TSE13RAE38 SLP164 P0000 T02440222


USA.gov is the U.S. government's official web portal to all federal, state and local government web resources and services.